createdAt,value
2022-10-16T00:00:36.681Z,953.4564209
2022-10-16T00:01:37.265Z,953.4590454
2022-10-16T00:02:37.759Z,953.4590454
2022-10-16T00:03:38.188Z,953.4874878
2022-10-16T00:04:38.720Z,953.5498657
2022-10-16T00:05:39.270Z,953.5113525
2022-10-16T00:06:40.231Z,953.5367432
2022-10-16T00:08:11.719Z,953.5236206
2022-10-16T00:09:12.173Z,953.4983521
2022-10-16T00:10:12.660Z,953.4715576
2022-10-16T00:11:13.208Z,953.4191895
2022-10-16T00:12:13.680Z,953.4478149
2022-10-16T00:13:14.211Z,953.3825073
2022-10-16T00:14:14.668Z,953.359375
2022-10-16T00:15:15.119Z,953.3325806
2022-10-16T00:16:15.664Z,953.3734131
2022-10-16T00:17:17.047Z,953.3620605
2022-10-16T00:18:18.500Z,953.3431396
2022-10-16T00:19:19.065Z,953.390564
2022-10-16T00:20:19.565Z,953.4509888
2022-10-16T00:21:20.085Z,953.430481
2022-10-16T00:22:22.789Z,953.444519
2022-10-16T00:23:23.078Z,953.4467773
2022-10-16T00:24:23.568Z,953.4328003
2022-10-16T00:25:24.036Z,953.4925537
2022-10-16T00:26:24.521Z,953.4949341
2022-10-16T00:27:25.745Z,953.4899902
2022-10-16T00:28:26.290Z,953.4665527
2022-10-16T00:29:26.720Z,953.5228271
2022-10-16T00:30:27.228Z,953.508728
2022-10-16T00:31:27.714Z,953.4793701
2022-10-16T00:32:28.664Z,953.526123
2022-10-16T00:33:28.900Z,953.5300903
2022-10-16T00:34:29.404Z,953.4660645
2022-10-16T00:35:29.963Z,953.5021973
2022-10-16T00:36:30.478Z,953.538208
2022-10-16T00:37:31.703Z,953.522522
2022-10-16T00:38:32.296Z,953.5209351
2022-10-16T00:39:32.935Z,953.552002
2022-10-16T00:40:33.451Z,953.586792
2022-10-16T00:41:34.002Z,953.5884399
2022-10-16T00:42:34.498Z,953.5999146
2022-10-16T00:43:35.059Z,953.5983887
2022-10-16T00:44:36.222Z,953.5435181
2022-10-16T00:45:37.048Z,953.5965576
2022-10-16T00:46:37.851Z,953.6105957
2022-10-16T00:47:39.223Z,953.6015625
2022-10-16T00:49:10.181Z,953.588501
2022-10-16T00:50:10.702Z,953.5368652
2022-10-16T00:51:11.404Z,953.5203247
2022-10-16T00:52:12.533Z,953.5465088
2022-10-16T00:53:13.143Z,953.5497437
2022-10-16T00:54:13.713Z,953.5628052
2022-10-16T00:55:14.238Z,953.5635986
2022-10-16T00:56:14.810Z,953.5613403
2022-10-16T00:58:16.612Z,953.5839233
2022-10-16T00:59:17.197Z,953.5147095
2022-10-16T01:00:17.672Z,953.5366211
2022-10-16T01:01:18.267Z,953.595459
2022-10-16T01:02:18.798Z,953.5570068
2022-10-16T01:03:19.419Z,953.5567017
2022-10-16T01:04:20.072Z,953.5300293
2022-10-16T01:05:20.813Z,953.5388184
2022-10-16T01:06:21.400Z,953.539856
2022-10-16T01:07:21.983Z,953.576416
2022-10-16T01:08:23.635Z,953.5740356
2022-10-16T01:09:25.278Z,953.5943604
2022-10-16T01:10:25.942Z,953.6542358
2022-10-16T01:11:26.546Z,953.6132813
2022-10-16T01:12:27.055Z,953.6450195
2022-10-16T01:13:27.581Z,953.6656494
2022-10-16T01:14:28.283Z,953.6311035
2022-10-16T01:15:28.920Z,953.6768799
2022-10-16T01:16:29.517Z,953.6660767
2022-10-16T01:17:30.759Z,953.6799316
2022-10-16T01:18:31.295Z,953.6637573
2022-10-16T01:19:31.866Z,953.6601563
2022-10-16T01:20:32.510Z,953.6928711
2022-10-16T01:21:33.205Z,953.6472168
2022-10-16T01:22:33.775Z,953.6348267
2022-10-16T01:23:34.300Z,953.6358032
2022-10-16T01:24:34.888Z,953.6322021
2022-10-16T01:25:35.530Z,953.598877
2022-10-16T01:26:36.144Z,953.5898438
2022-10-16T01:27:37.311Z,953.6043701
2022-10-16T01:28:37.958Z,953.6295166
2022-10-16T01:29:38.332Z,953.6312256
2022-10-16T01:30:39.330Z,953.6173706
2022-10-16T01:32:10.290Z,953.6677856
2022-10-16T01:33:11.036Z,953.6505737
2022-10-16T01:34:11.596Z,953.7322388
2022-10-16T01:35:12.093Z,953.756897
2022-10-16T01:36:12.610Z,953.7255249
2022-10-16T01:37:13.289Z,953.7230225
2022-10-16T01:38:14.623Z,953.7474976
2022-10-16T01:39:15.264Z,953.7263794
2022-10-16T01:40:15.788Z,953.7284546
2022-10-16T01:41:16.288Z,953.7438965
2022-10-16T01:42:16.800Z,953.7387695
2022-10-16T01:43:17.538Z,953.748291
2022-10-16T01:44:18.152Z,953.7092285
2022-10-16T01:45:18.789Z,953.6707153
2022-10-16T01:46:19.334Z,953.6812744
2022-10-16T01:47:19.879Z,953.7391968
2022-10-16T01:48:21.178Z,953.6836548
2022-10-16T01:49:21.809Z,953.7265625
2022-10-16T01:50:22.421Z,953.7390747
2022-10-16T01:51:23.043Z,953.7185059
2022-10-16T01:52:23.870Z,953.6856079
2022-10-16T01:53:24.164Z,953.6685791
2022-10-16T01:54:24.765Z,953.6939087
2022-10-16T01:55:25.417Z,953.6502075
2022-10-16T01:56:26.139Z,953.6975708
2022-10-16T01:57:26.766Z,953.6323242
2022-10-16T01:58:27.989Z,953.6333008
2022-10-16T01:59:28.507Z,953.6771851
2022-10-16T02:00:29.160Z,953.7324829
2022-10-16T02:01:29.854Z,953.7194824
2022-10-16T02:02:30.500Z,953.7462769
2022-10-16T02:03:31.039Z,953.7143555
2022-10-16T02:04:31.558Z,953.6859131
2022-10-16T02:05:32.104Z,953.7068481
2022-10-16T02:06:32.865Z,953.7225952
2022-10-16T02:07:33.558Z,953.7437744
2022-10-16T02:08:35.151Z,953.7421875
2022-10-16T02:09:35.719Z,953.7055664
2022-10-16T02:10:36.350Z,953.6751709
2022-10-16T02:11:36.889Z,953.7006226
2022-10-16T02:12:37.593Z,953.7103882
2022-10-16T02:13:38.269Z,953.7058105
2022-10-16T02:15:10.240Z,953.7106323
2022-10-16T02:16:10.751Z,953.7112427
2022-10-16T02:17:11.304Z,953.729248
2022-10-16T02:18:12.771Z,953.7357788
2022-10-16T02:19:13.422Z,953.7033691
2022-10-16T02:20:14.077Z,953.6565552
2022-10-16T02:21:14.752Z,953.6738892
2022-10-16T02:22:16.229Z,953.6478271
2022-10-16T02:23:16.727Z,953.6781006
2022-10-16T02:24:17.501Z,953.6624756
2022-10-16T02:25:18.142Z,953.7000122
2022-10-16T02:26:18.749Z,953.6853027
2022-10-16T02:27:19.285Z,953.694397
2022-10-16T02:28:20.799Z,953.6656494
2022-10-16T02:29:21.479Z,953.666748
2022-10-16T02:30:22.155Z,953.623291
2022-10-16T02:31:22.818Z,953.5814819
2022-10-16T02:32:23.713Z,953.618103
2022-10-16T02:33:24.016Z,953.6851807
2022-10-16T02:34:24.582Z,953.6589966
2022-10-16T02:35:25.260Z,953.6696777
2022-10-16T02:36:25.909Z,953.717041
2022-10-16T02:37:26.601Z,953.7243042
2022-10-16T02:38:27.754Z,953.7121582
2022-10-16T02:39:28.340Z,953.7334595
2022-10-16T02:40:28.858Z,953.774292
2022-10-16T02:41:29.617Z,953.8043213
2022-10-16T02:42:30.268Z,953.8206177
2022-10-16T02:43:30.899Z,953.8288574
2022-10-16T02:44:31.492Z,953.8233032
2022-10-16T02:45:32.193Z,953.828125
2022-10-16T02:46:32.903Z,953.8258667
2022-10-16T02:47:33.618Z,953.8666382
2022-10-16T02:48:35.080Z,953.8395386
2022-10-16T02:49:35.747Z,953.8389282
2022-10-16T02:50:36.260Z,953.8484497
2022-10-16T02:51:36.862Z,953.8745117
2022-10-16T02:52:37.655Z,953.8918457
2022-10-16T02:54:08.917Z,953.883728
2022-10-16T02:55:09.564Z,953.9071655
2022-10-16T02:56:10.185Z,953.8794556
2022-10-16T02:57:10.604Z,953.8928223
2022-10-16T02:58:11.834Z,953.8585205
2022-10-16T02:59:12.470Z,953.8796387
2022-10-16T03:00:13.184Z,953.8707886
2022-10-16T03:01:13.826Z,953.8587646
2022-10-16T03:02:14.249Z,953.8772583
2022-10-16T03:03:14.775Z,953.8939209
2022-10-16T03:04:15.500Z,953.9026489
2022-10-16T03:05:16.296Z,953.9232178
2022-10-16T03:06:16.780Z,953.9054565
2022-10-16T03:07:17.323Z,953.9104004
2022-10-16T03:08:18.731Z,953.866272
2022-10-16T03:09:19.250Z,953.8114014
2022-10-16T03:10:19.922Z,953.8311157
2022-10-16T03:11:20.900Z,953.8121338
2022-10-16T03:12:22.242Z,953.8205566
2022-10-16T03:13:22.777Z,953.8410645
2022-10-16T03:14:23.305Z,953.8214111
2022-10-16T03:15:23.907Z,953.8671875
2022-10-16T03:16:24.546Z,953.8590698
2022-10-16T03:17:25.338Z,953.8841553
2022-10-16T03:18:26.716Z,953.8998413
2022-10-16T03:19:27.252Z,953.9298706
2022-10-16T03:20:27.821Z,953.946228
2022-10-16T03:21:28.426Z,953.9796753
2022-10-16T03:22:29.141Z,954.0204468
2022-10-16T03:24:30.478Z,954.027832
2022-10-16T03:25:31.058Z,954.022644
2022-10-16T03:26:31.680Z,954.0145264
2022-10-16T03:27:32.486Z,953.9776611
2022-10-16T03:28:33.872Z,953.9923706
2022-10-16T03:29:34.483Z,953.9769287
2022-10-16T03:30:35.034Z,953.9508057
2022-10-16T03:31:35.670Z,953.9801636
2022-10-16T03:33:36.986Z,953.9768677
2022-10-16T03:35:08.369Z,953.9550171
2022-10-16T03:36:08.975Z,954
2022-10-16T03:37:09.551Z,954.0114136
2022-10-16T03:38:10.768Z,954.0353394
2022-10-16T03:39:12.318Z,954.0532227
2022-10-16T03:40:13.009Z,954.0203247
2022-10-16T03:41:13.649Z,954.0424805
2022-10-16T03:42:14.290Z,954.0777588
2022-10-16T03:44:15.589Z,954.0924072
2022-10-16T03:45:16.761Z,954.0784302
2022-10-16T03:46:17.411Z,954.098999
2022-10-16T03:47:17.904Z,954.0889282
2022-10-16T03:48:18.411Z,954.1068726
2022-10-16T03:49:19.489Z,954.0823364
2022-10-16T03:50:20.229Z,954.0931396
2022-10-16T03:51:20.845Z,954.0463867
2022-10-16T03:52:21.502Z,954.0736084
2022-10-16T03:53:22.064Z,954.0268555
2022-10-16T03:54:22.593Z,954.0405273
2022-10-16T03:55:23.116Z,954.0388794
2022-10-16T03:56:23.780Z,954.024231
2022-10-16T03:57:24.788Z,954.0579834
2022-10-16T03:58:25.028Z,954.0552979
2022-10-16T03:59:26.477Z,954.0340576
2022-10-16T04:00:26.988Z,954.0945435
2022-10-16T04:01:27.644Z,954.105957
2022-10-16T04:02:28.246Z,954.0995483
2022-10-16T04:03:28.834Z,954.0805664
2022-10-16T04:04:29.429Z,954.1082764
2022-10-16T04:05:29.953Z,954.1033325
2022-10-16T04:06:30.481Z,954.0854492
2022-10-16T04:07:31.144Z,954.0726318
2022-10-16T04:08:31.779Z,954.0889282
2022-10-16T04:09:33.108Z,954.1051636
2022-10-16T04:10:33.616Z,954.1104126
2022-10-16T04:11:34.126Z,954.1038818
2022-10-16T04:12:34.650Z,954.1201782
2022-10-16T04:13:35.315Z,954.1322632
2022-10-16T04:14:36.073Z,954.1585693
2022-10-16T04:15:37.781Z,954.180603
2022-10-16T04:17:08.626Z,954.1488037
2022-10-16T04:18:09.157Z,954.1645508
2022-10-16T04:19:10.584Z,954.1668701
2022-10-16T04:20:11.260Z,954.1912231
2022-10-16T04:21:11.889Z,954.2196655
2022-10-16T04:22:12.490Z,954.180603
2022-10-16T04:23:13.155Z,954.2157593
2022-10-16T04:24:13.825Z,954.2490845
2022-10-16T04:25:14.596Z,954.2190552
2022-10-16T04:26:15.251Z,954.2279663
2022-10-16T04:27:15.893Z,954.1952515
2022-10-16T04:28:16.531Z,954.2312622
2022-10-16T04:29:18.037Z,954.2009277
2022-10-16T04:30:18.724Z,954.2414551
2022-10-16T04:31:19.415Z,954.2301025
2022-10-16T04:32:20.093Z,954.2751465
2022-10-16T04:33:20.864Z,954.2765503
2022-10-16T04:34:21.458Z,954.2650757
2022-10-16T04:35:22.068Z,954.2481079
2022-10-16T04:36:24.374Z,954.2645264
2022-10-16T04:37:23.687Z,954.2612305
2022-10-16T04:38:24.170Z,954.2112427
2022-10-16T04:39:25.579Z,954.2546997
2022-10-16T04:40:26.112Z,954.2977905
2022-10-16T04:41:26.705Z,954.3026733
2022-10-16T04:42:27.452Z,954.2912598
2022-10-16T04:44:28.855Z,954.2675171
2022-10-16T04:45:29.365Z,954.2550659
2022-10-16T04:46:30.761Z,954.2796631
2022-10-16T04:47:31.404Z,954.2567139
2022-10-16T04:48:32.110Z,954.2134399
2022-10-16T04:49:33.628Z,954.1846924
2022-10-16T04:50:34.251Z,954.1749268
2022-10-16T04:51:34.873Z,954.1576538
2022-10-16T04:53:36.226Z,954.1893921
2022-10-16T04:55:07.269Z,954.1984863
2022-10-16T04:56:07.886Z,954.2025146
2022-10-16T04:57:08.411Z,954.2324829
2022-10-16T04:58:09.002Z,954.2171631
2022-10-16T04:59:10.381Z,954.248291
2022-10-16T05:00:10.988Z,954.2734375
2022-10-16T05:01:11.646Z,954.2800293
2022-10-16T05:02:12.269Z,954.2897949
2022-10-16T05:03:12.929Z,954.2904663
2022-10-16T05:04:13.409Z,954.3018799
2022-10-16T05:05:14.093Z,954.3117065
2022-10-16T05:06:14.745Z,954.3231201
2022-10-16T05:07:15.431Z,954.3499756
2022-10-16T05:08:15.966Z,954.3566895
2022-10-16T05:09:17.262Z,954.3248291
2022-10-16T05:10:17.792Z,954.3581543
2022-10-16T05:11:18.462Z,954.3345947
2022-10-16T05:12:19.137Z,954.3482666
2022-10-16T05:13:19.838Z,954.3688965
2022-10-16T05:14:20.670Z,954.3810425
2022-10-16T05:15:21.227Z,954.4078369
2022-10-16T05:16:22.740Z,954.4020386
2022-10-16T05:17:23.956Z,954.3939209
2022-10-16T05:18:24.107Z,954.418457
2022-10-16T05:19:27.625Z,954.3757324
2022-10-16T05:20:25.838Z,954.397583
2022-10-16T05:21:26.470Z,954.3731079
2022-10-16T05:22:27.105Z,954.359436
2022-10-16T05:23:27.743Z,954.37323
2022-10-16T05:24:28.351Z,954.3314209
2022-10-16T05:25:28.961Z,954.3517456
2022-10-16T05:26:29.622Z,954.3582764
2022-10-16T05:27:30.257Z,954.3786011
2022-10-16T05:28:31.818Z,954.3779907
2022-10-16T05:29:33.299Z,954.3557739
2022-10-16T05:30:33.858Z,954.3449707
2022-10-16T05:31:34.389Z,954.3622437
2022-10-16T05:32:34.931Z,954.3825073
2022-10-16T05:33:35.524Z,954.3508301
2022-10-16T05:35:10.083Z,954.3117065
2022-10-16T05:36:07.403Z,954.2920532
2022-10-16T05:37:07.945Z,954.3378296
2022-10-16T05:38:09.311Z,954.2722168
2022-10-16T05:39:09.931Z,954.2706299
2022-10-16T05:40:11.127Z,954.2976685
2022-10-16T05:41:11.806Z,954.2924805
2022-10-16T05:42:12.493Z,954.3291626
2022-10-16T05:43:13.084Z,954.3382568
2022-10-16T05:44:14.563Z,954.3356323
2022-10-16T05:45:15.244Z,954.3347168
2022-10-16T05:46:15.851Z,954.3373413
2022-10-16T05:47:16.562Z,954.3301392
2022-10-16T05:48:17.184Z,954.2818604
2022-10-16T05:49:19.249Z,954.319397
2022-10-16T05:50:20.026Z,954.2753296
2022-10-16T05:51:20.967Z,954.3244019
2022-10-16T05:52:21.723Z,954.3543701
2022-10-16T05:53:22.418Z,954.3909302
2022-10-16T05:54:23.597Z,954.3805542
2022-10-16T05:55:24.196Z,954.3984985
2022-10-16T05:56:24.775Z,954.4145508
2022-10-16T05:57:25.964Z,954.4733887
2022-10-16T05:58:26.335Z,954.4406738
2022-10-16T05:59:27.803Z,954.4740601
2022-10-16T06:00:28.390Z,954.4593506
2022-10-16T06:01:29.059Z,954.4966431
2022-10-16T06:02:29.675Z,954.5178833
2022-10-16T06:03:30.375Z,954.5267334
2022-10-16T06:04:31.094Z,954.5342407
2022-10-16T06:05:31.714Z,954.56427
2022-10-16T06:06:32.297Z,954.5603638
2022-10-16T06:07:32.914Z,954.5789795
2022-10-16T06:08:33.631Z,954.5449829
2022-10-16T06:09:34.852Z,954.5678101
2022-10-16T06:11:06.302Z,954.5662231
2022-10-16T06:12:06.850Z,954.6177979
2022-10-16T06:13:07.439Z,954.6472168
2022-10-16T06:14:08.155Z,954.6454468
2022-10-16T06:15:08.799Z,954.6259155
2022-10-16T06:16:09.514Z,954.586731
2022-10-16T06:17:11.108Z,954.6121826
2022-10-16T06:18:11.661Z,954.6137695
2022-10-16T06:19:12.282Z,954.600647
2022-10-16T06:20:13.734Z,954.6401367
2022-10-16T06:21:14.430Z,954.6280518
2022-10-16T06:22:15.166Z,954.6270142
2022-10-16T06:23:15.729Z,954.6890869
2022-10-16T06:24:16.265Z,954.6942139
2022-10-16T06:25:16.845Z,954.703064
2022-10-16T06:26:17.599Z,954.7193604
2022-10-16T06:27:18.261Z,954.7373657
2022-10-16T06:28:19.038Z,954.7553101
2022-10-16T06:29:19.523Z,954.7210083
2022-10-16T06:30:21.134Z,954.7390137
2022-10-16T06:31:22.024Z,954.7693481
2022-10-16T06:32:22.714Z,954.7692871
2022-10-16T06:33:23.465Z,954.7457886
2022-10-16T06:34:24.040Z,954.7757568
2022-10-16T06:35:24.664Z,954.774231
2022-10-16T06:36:25.383Z,954.7979736
2022-10-16T06:37:26.412Z,954.8185425
2022-10-16T06:38:26.886Z,954.7728271
2022-10-16T06:39:27.623Z,954.7247925
2022-10-16T06:40:29.087Z,954.7371826
2022-10-16T06:41:29.723Z,954.7672119
2022-10-16T06:42:30.407Z,954.7877197
2022-10-16T06:43:31.173Z,954.7561035
2022-10-16T06:44:31.825Z,954.7658081
2022-10-16T06:45:32.508Z,954.800293
2022-10-16T06:46:33.756Z,954.8074951
2022-10-16T06:47:34.312Z,954.8534546
2022-10-16T06:48:35.357Z,954.8879395
2022-10-16T06:50:07.126Z,954.8977051
2022-10-16T06:51:08.077Z,954.9533081
2022-10-16T06:52:08.440Z,954.9682617
2022-10-16T06:53:09.022Z,954.9934082
2022-10-16T06:54:10.739Z,955.0423584
2022-10-16T06:55:11.360Z,955.0015869
2022-10-16T06:56:12.056Z,955.0172119
2022-10-16T06:57:12.735Z,955.0531006
2022-10-16T06:58:13.303Z,955.0423584
2022-10-16T06:59:13.897Z,955.0452271
2022-10-16T07:00:15.180Z,955.0175171
2022-10-16T07:01:15.806Z,955.0510254
2022-10-16T07:02:16.494Z,955.0532837
2022-10-16T07:03:17.123Z,955.0983887
2022-10-16T07:04:17.730Z,955.1048584
2022-10-16T07:05:18.255Z,955.1531982
2022-10-16T07:06:18.945Z,955.1329956
2022-10-16T07:07:19.572Z,955.1573486
2022-10-16T07:08:20.206Z,955.2341309
2022-10-16T07:09:20.982Z,955.2383423
2022-10-16T07:10:22.169Z,955.2197876
2022-10-16T07:11:22.760Z,955.1843872
2022-10-16T07:12:23.763Z,955.2442017
2022-10-16T07:13:24.102Z,955.260498
2022-10-16T07:14:24.785Z,955.2368774
2022-10-16T07:15:25.297Z,955.2182617
2022-10-16T07:16:25.813Z,955.2704468
2022-10-16T07:17:27.003Z,955.2949829
2022-10-16T07:18:27.678Z,955.3214111
2022-10-16T07:19:31.920Z,955.3214111
2022-10-16T07:20:29.654Z,955.3671265
2022-10-16T07:21:30.241Z,955.3256226
2022-10-16T07:22:30.810Z,955.3265381
2022-10-16T07:23:31.479Z,955.373291
2022-10-16T07:24:32.137Z,955.3862305
2022-10-16T07:25:32.834Z,955.3927612
2022-10-16T07:26:33.478Z,955.4216919
2022-10-16T07:27:34.922Z,955.4334106
2022-10-16T07:29:05.710Z,955.4454956
2022-10-16T07:30:09.150Z,955.447998
2022-10-16T07:31:08.037Z,955.4743652
2022-10-16T07:32:08.658Z,955.4939575
2022-10-16T07:33:09.243Z,955.5095825
2022-10-16T07:34:09.815Z,955.5147705
2022-10-16T07:35:10.618Z,955.5010376
2022-10-16T07:36:15.848Z,955.5323486
2022-10-16T07:37:11.905Z,955.5895386
2022-10-16T07:38:13.325Z,955.5904541
2022-10-16T07:39:13.859Z,955.5806274
2022-10-16T07:40:15.314Z,955.5848389
2022-10-16T07:41:16.071Z,955.6070557
2022-10-16T07:42:16.812Z,955.6029663
2022-10-16T07:43:17.475Z,955.6768799
2022-10-16T07:44:18.032Z,955.6414795
2022-10-16T07:45:18.582Z,955.6303101
2022-10-16T07:46:19.244Z,955.6369019
2022-10-16T07:47:20.979Z,955.6384277
2022-10-16T07:48:21.709Z,955.6671753
2022-10-16T07:49:22.292Z,955.6887207
2022-10-16T07:50:23.772Z,955.6517334
2022-10-16T07:51:24.357Z,955.6837769
2022-10-16T07:52:25.020Z,955.6592407
2022-10-16T07:53:27.055Z,955.6690063
2022-10-16T07:54:27.139Z,955.6935425
2022-10-16T07:55:27.700Z,955.6831055
2022-10-16T07:56:28.318Z,955.7490845
2022-10-16T07:57:29.172Z,955.7761841
2022-10-16T07:58:29.587Z,955.8118896
2022-10-16T07:59:30.257Z,955.8422852
2022-10-16T08:00:31.665Z,955.875
2022-10-16T08:01:32.286Z,955.8903198
2022-10-16T08:02:32.906Z,955.8510742
2022-10-16T08:03:33.540Z,955.8289185
2022-10-16T08:05:05.538Z,955.8632202
2022-10-16T08:06:06.171Z,955.8370972
2022-10-16T08:07:06.731Z,955.8828735
2022-10-16T08:08:07.391Z,955.8986206
2022-10-16T08:09:07.931Z,955.9057617
2022-10-16T08:10:09.316Z,955.9326782
2022-10-16T08:11:09.964Z,955.8875122
2022-10-16T08:12:10.583Z,955.9447021
2022-10-16T08:13:11.153Z,955.9562378
2022-10-16T08:14:12.541Z,955.9715576
2022-10-16T08:15:13.241Z,955.9650269
2022-10-16T08:16:13.894Z,956.0125122
2022-10-16T08:17:14.555Z,956.0402222
2022-10-16T08:18:15.230Z,956.0598145
2022-10-16T08:19:16.568Z,956.085022
2022-10-16T08:20:17.787Z,956.0474854
2022-10-16T08:21:20.468Z,956.0873413
2022-10-16T08:22:19.083Z,956.0618896
2022-10-16T08:23:19.702Z,956.0471802
2022-10-16T08:24:20.594Z,956.0513916
2022-10-16T08:25:21.120Z,956.0495605
2022-10-16T08:26:21.722Z,956.1011963
2022-10-16T08:27:22.480Z,956.0527954
2022-10-16T08:28:24.245Z,956.1171875
2022-10-16T08:29:24.790Z,956.1394043
2022-10-16T08:30:26.260Z,956.0960083
2022-10-16T08:31:26.846Z,956.0797119
2022-10-16T08:32:27.694Z,956.1296387
2022-10-16T08:33:28.064Z,956.0756226
2022-10-16T08:34:29.580Z,956.119873
2022-10-16T08:35:30.156Z,956.1037598
2022-10-16T08:36:31.282Z,956.0759277
2022-10-16T08:37:31.925Z,956.0759277
2022-10-16T08:38:32.533Z,956.0719604
2022-10-16T08:40:04.391Z,956.0940552
2022-10-16T08:41:05.499Z,956.0761108
2022-10-16T08:42:06.761Z,956.0747681
2022-10-16T08:43:07.456Z,956.119873
2022-10-16T08:44:08.067Z,956.0995483
2022-10-16T08:45:08.705Z,956.1328125
2022-10-16T08:46:09.191Z,956.1428833
2022-10-16T08:47:09.670Z,956.1422119
2022-10-16T08:48:10.434Z,956.1414795
2022-10-16T08:49:10.952Z,956.133606
2022-10-16T08:50:11.613Z,956.1403198
2022-10-16T08:51:13.087Z,956.1634521
2022-10-16T08:52:13.607Z,956.1617432
2022-10-16T08:53:14.108Z,956.1750488
2022-10-16T08:54:14.797Z,956.2268677
2022-10-16T08:55:15.450Z,956.2739258
2022-10-16T08:56:16.054Z,956.2501831
2022-10-16T08:57:21.249Z,956.2879639
2022-10-16T08:58:17.576Z,956.2872925
2022-10-16T08:59:18.183Z,956.2410889
2022-10-16T09:00:18.774Z,956.2426758
2022-10-16T09:01:20.188Z,956.210144
2022-10-16T09:02:20.835Z,956.1964111
2022-10-16T09:03:21.301Z,956.1338501
2022-10-16T09:04:21.878Z,956.124939
2022-10-16T09:05:22.586Z,956.1077881
2022-10-16T09:06:23.451Z,956.1047363
2022-10-16T09:07:24.010Z,956.0918579
2022-10-16T09:08:24.520Z,956.1091309
2022-10-16T09:09:25.167Z,956.1901855
2022-10-16T09:10:26.873Z,956.1831055
2022-10-16T09:11:27.516Z,956.1735229
2022-10-16T09:12:29.197Z,956.1972656
2022-10-16T09:13:29.393Z,956.190918
2022-10-16T09:14:29.953Z,956.1708374
2022-10-16T09:15:30.643Z,956.1481323
2022-10-16T09:16:31.318Z,956.1048584
2022-10-16T09:17:32.859Z,956.0446777
2022-10-16T09:19:03.812Z,956.038269
2022-10-16T09:20:04.334Z,956.0853271
2022-10-16T09:21:05.667Z,956.1040649
2022-10-16T09:22:06.305Z,956.0993652
2022-10-16T09:23:07.224Z,956.1437378
2022-10-16T09:24:07.897Z,956.1537476
2022-10-16T09:25:08.326Z,956.1712646
2022-10-16T09:26:08.985Z,956.1881104
2022-10-16T09:27:10.207Z,956.2232666
2022-10-16T09:28:10.909Z,956.1929932
2022-10-16T09:29:12.090Z,956.234375
2022-10-16T09:30:12.533Z,956.2704468
2022-10-16T09:31:14.208Z,956.2993774
2022-10-16T09:32:14.977Z,956.3126831
2022-10-16T09:33:15.694Z,956.3258667
2022-10-16T09:34:16.304Z,956.3685913
2022-10-16T09:35:16.895Z,956.3751831
2022-10-16T09:36:17.409Z,956.3704834
2022-10-16T09:37:18.092Z,956.3312988
2022-10-16T09:38:18.790Z,956.3504639
2022-10-16T09:39:19.486Z,956.3154907
2022-10-16T09:40:19.960Z,956.3198242
2022-10-16T09:41:21.070Z,956.3249512
2022-10-16T09:42:21.788Z,956.3217163
2022-10-16T09:43:22.443Z,956.3187256
2022-10-16T09:44:23.094Z,956.3031006
2022-10-16T09:45:24.260Z,956.3582764
2022-10-16T09:46:24.773Z,956.3494263
2022-10-16T09:47:25.564Z,956.3259277
2022-10-16T09:48:25.997Z,956.3303223
2022-10-16T09:49:27.128Z,956.350769
2022-10-16T09:50:27.690Z,956.367981
2022-10-16T09:51:28.241Z,956.3920288
2022-10-16T09:52:29.516Z,956.4043579
2022-10-16T09:53:30.547Z,956.4198608
2022-10-16T09:54:31.129Z,956.4707642
2022-10-16T09:55:31.722Z,956.4693604
2022-10-16T09:56:32.251Z,956.4302979
2022-10-16T09:58:04.320Z,956.458252
2022-10-16T09:59:05.103Z,956.4472046
2022-10-16T10:00:05.976Z,956.4040527
2022-10-16T10:01:07.355Z,956.4238281
2022-10-16T10:02:08.061Z,956.4428711
2022-10-16T10:03:08.546Z,956.4519043
2022-10-16T10:04:09.037Z,956.4699707
2022-10-16T10:05:09.773Z,956.4822388
2022-10-16T10:06:10.623Z,956.461792
2022-10-16T10:07:11.294Z,956.4733887
2022-10-16T10:08:11.796Z,956.4810791
2022-10-16T10:09:12.414Z,956.413269
2022-10-16T10:10:13.142Z,956.4329834
2022-10-16T10:11:16.122Z,956.3691406
2022-10-16T10:12:15.127Z,956.4052124
2022-10-16T10:13:15.734Z,956.3833008
2022-10-16T10:14:16.229Z,956.3783569
2022-10-16T10:15:16.879Z,956.4161987
2022-10-16T10:16:17.499Z,956.4073486
2022-10-16T10:17:18.192Z,956.3877563
2022-10-16T10:18:18.687Z,956.3582764
2022-10-16T10:19:19.188Z,956.414978
2022-10-16T10:20:19.792Z,956.3822021
2022-10-16T10:21:20.723Z,956.3620605
2022-10-16T10:22:22.135Z,956.4324951
2022-10-16T10:23:22.676Z,956.3725586
2022-10-16T10:24:24.107Z,956.4195557
2022-10-16T10:25:24.680Z,956.4202881
2022-10-16T10:26:25.374Z,956.4047852
2022-10-16T10:27:26.082Z,956.3682251
2022-10-16T10:28:26.661Z,956.3895264
2022-10-16T10:29:27.272Z,956.3468628
2022-10-16T10:30:28.153Z,956.3765869
2022-10-16T10:31:28.810Z,956.3372803
2022-10-16T10:32:30.234Z,956.3421631
2022-10-16T10:33:30.596Z,956.3278809
2022-10-16T10:34:31.244Z,956.3417358
2022-10-16T10:35:31.775Z,956.352356
2022-10-16T10:37:03.647Z,956.3493042
2022-10-16T10:38:04.184Z,956.2974854
2022-10-16T10:39:04.877Z,956.3428345
2022-10-16T10:40:05.582Z,956.340332
2022-10-16T10:41:06.838Z,956.3183594
2022-10-16T10:42:07.413Z,956.3167114
2022-10-16T10:43:08.020Z,956.2993774
2022-10-16T10:44:09.334Z,956.2684326
2022-10-16T10:45:09.939Z,956.2644043
2022-10-16T10:46:10.713Z,956.2709351
2022-10-16T10:47:11.331Z,956.258606
2022-10-16T10:48:12.131Z,956.211853
2022-10-16T10:49:12.685Z,956.1472168
2022-10-16T10:50:14.000Z,956.1748657
2022-10-16T10:51:15.316Z,956.138916
2022-10-16T10:52:16.059Z,956.1707764
2022-10-16T10:53:16.614Z,956.1830444
2022-10-16T10:54:17.172Z,956.1429443
2022-10-16T10:55:17.974Z,956.1643677
2022-10-16T10:56:18.612Z,956.1045532
2022-10-16T10:57:19.295Z,956.0560913
2022-10-16T10:58:20.490Z,956.0848389
2022-10-16T10:59:21.059Z,956.111084
2022-10-16T11:00:21.599Z,956.1157837
2022-10-16T11:01:22.834Z,956.0889282
2022-10-16T11:02:23.384Z,956.079895
2022-10-16T11:03:23.959Z,956.0668945
2022-10-16T11:04:24.512Z,956.0889282
2022-10-16T11:05:25.123Z,956.0684204
2022-10-16T11:06:25.667Z,956.0814819
2022-10-16T11:07:26.423Z,956.1292114
2022-10-16T11:08:27.695Z,956.0840454
2022-10-16T11:09:28.311Z,956.0740356
2022-10-16T11:10:28.883Z,956.107666
2022-10-16T11:11:30.382Z,956.1152954
2022-10-16T11:12:30.913Z,956.114502